Monroe Regional Airport

Airport
ICAO code: 
KMLU
Summary
ICAO Region: 
NAM
Territory: 
Location: 
Monroe, Louisiana,
Coordinates: 
Aerial View: 
32° 30' 40.849" N, 92° 2' 18.488" W
Metar
Observation
KMLU 021553Z 00000KT 10SM CLR 19/15 A3020 RMK AO2 SLP226 T01890150
Station
Monroe, Monroe Regional Airport
Date/Time
2021-12-02 15:53:00
Wind direction
Wind speed
00 kts
Lowest cloud amount
n/a
Temperature
18.9°C
Dew point
15°C
Humidity
78%
Weather condition
n/a

Description

Monroe Regional Airport is a public use airport located 6 km east of the central business district of Monroe, a city in Ouachita Parish, Louisiana.

Climatology

Humid “subtropical” climate (Köppen climate classification Cfa) - characterized by hot, humid summers and cool winters. Significant amounts of precipitation occur in all seasons in most areas. Winter rainfall (and sometimes snowfall) is associated with large storms that the westerlies steer from west to east. Most summer rainfall occurs during thunderstorms and occasional tropical storms (hurricanes).

Runways

Designator Length Width Surface Rops
14/32 1524 46 ASP Yes/Yes
18/36 1524 46 ASP Yes/Yes
4/22 2288 46 PEM Yes/Yes
Airport map: 
Aerial View: 

SKYbrary Partners:

Safety knowledge contributed by: